Time;durP1;ratioP1;P1;durP2;ratioP2;P2;SDS_P1;SDS_P2;PMS_P1;PMS_P2;Temp;Humidity;BMP_temperature;BMP_pressure;BME280_temperature;BME280_humidity;BME280_pressure;Samples;Min_cycle;Max_cycle;Signal;HPM_P1;HPM_P2
2022/11/19 00:01:34;;;;;;;;;18.67;14.00;;;;;3.99;100.00;98445.31;6312134;20;3542021;-57
2022/11/19 00:04:07;;;;;;;;;16.00;11.00;;;;;4.26;100.00;98458.00;6313109;20;2793212;-57
2022/11/19 00:06:35;;;;;;;;;12.33;11.67;;;;;4.28;100.00;98458.78;6304663;20;2794040;-58
2022/11/19 00:09:04;;;;;;;;;14.50;14.00;;;;;4.22;100.00;98461.78;6314982;20;2812890;-59
2022/11/19 00:14:23;;;;;;;;;15.00;15.00;;;;;4.18;100.00;98464.59;6310530;20;3549654;-59
2022/11/19 00:16:51;;;;;;;;;16.00;15.00;;;;;4.15;100.00;98472.75;6311751;20;2805602;-58
2022/11/19 00:19:20;;;;;;;;;19.33;17.67;;;;;4.31;100.00;98474.56;6283461;20;3548172;-59
2022/11/19 00:21:49;;;;;;;;;17.50;16.00;;;;;4.24;100.00;98478.47;6314137;20;2823209;-59
2022/11/19 00:24:17;;;;;;;;;16.00;16.00;;;;;4.24;100.00;98481.13;6281167;20;2825266;-59
2022/11/19 00:26:44;;;;;;;;;14.50;14.50;;;;;4.22;100.00;98488.38;6282875;20;2794012;-59
2022/11/19 00:29:13;;;;;;;;;20.33;17.00;;;;;4.25;100.00;98496.16;6281088;20;3558674;-59
2022/11/19 00:31:44;;;;;;;;;14.50;13.00;;;;;4.36;100.00;98501.72;6313883;20;2799218;-59
2022/11/19 00:34:13;;;;;;;;;20.33;19.00;;;;;4.33;100.00;98507.22;6280092;20;3558617;-58
2022/11/19 00:36:41;;;;;;;;;24.00;22.00;;;;;4.22;100.00;98509.63;6311863;20;2837795;-58
2022/11/19 00:39:09;;;;;;;;;16.00;16.00;;;;;4.12;100.00;98520.72;6281498;20;3569045;-58
2022/11/19 00:41:38;;;;;;;;;21.33;16.67;;;;;4.32;100.00;98532.09;6279944;20;3557543;-58
2022/11/19 00:44:06;;;;;;;;;21.50;16.00;;;;;4.39;100.00;98528.13;6311689;20;2820057;-59
2022/11/19 00:46:34;;;;;;;;;23.00;20.33;;;;;4.47;100.00;98547.16;6278154;20;3570174;-58
2022/11/19 00:49:02;;;;;;;;;21.50;20.00;;;;;4.55;100.00;98542.28;6308296;20;2491939;-58
2022/11/19 00:51:31;;;;;;;;;18.67;18.67;;;;;4.50;100.00;98551.44;6278418;20;3570092;-59
2022/11/19 00:53:59;;;;;;;;;21.00;16.67;;;;;4.62;100.00;98551.63;6278072;20;3552377;-58
2022/11/19 00:56:27;;;;;;;;;23.00;21.00;;;;;4.56;100.00;98546.66;6309786;20;2494072;-58
2022/11/19 00:58:55;;;;;;;;;27.50;22.50;;;;;4.55;100.00;98544.94;6279329;20;2492024;-58
2022/11/19 01:01:25;;;;;;;;;26.50;23.00;;;;;4.71;100.00;98536.97;6278439;20;2500444;-59
2022/11/19 01:03:54;;;;;;;;;29.00;26.50;;;;;4.81;100.00;98542.63;6275683;20;2844139;-59
2022/11/19 01:06:24;;;;;;;;;28.50;24.50;;;;;4.83;100.00;98565.53;6274303;20;2500422;-58
2022/11/19 01:08:53;;;;;;;;;28.50;23.50;;;;;4.86;100.00;98567.16;6278973;20;2841961;-58
2022/11/19 01:11:28;;;;;;;;;30.00;25.00;;;;;5.00;100.00;98577.00;6276797;20;2500286;-58
2022/11/19 01:13:58;;;;;;;;;31.50;28.50;;;;;4.95;100.00;98585.28;6280383;20;2847145;-58
2022/11/19 01:16:32;;;;;;;;;35.00;28.00;;;;;4.97;100.00;98588.69;6277951;20;2859637;-58
2022/11/19 01:19:00;;;;;;;;;25.00;18.00;;;;;4.66;100.00;98578.94;6278869;20;2832599;-58
2022/11/19 01:21:32;;;;;;;;;11.00;11.00;;;;;4.49;100.00;98581.66;6280187;20;2794113;-60
2022/11/19 01:24:02;;;;;;;;;18.00;15.00;;;;;4.17;100.00;98593.06;6279491;20;2811732;-60
2022/11/19 01:26:30;;;;;;;;;19.00;15.00;;;;;4.11;100.00;98597.84;6306076;20;2791996;-59
2022/11/19 01:28:59;;;;;;;;;16.00;13.33;;;;;4.14;100.00;98611.81;6277874;20;3526421;-58
2022/11/19 01:31:29;;;;;;;;;17.67;15.33;;;;;4.31;100.00;98626.00;6311099;20;3539858;-58
2022/11/19 01:33:59;;;;;;;;;17.33;16.00;;;;;4.34;100.00;98620.53;6312492;20;3563251;-58
2022/11/19 01:36:29;;;;;;;;;19.33;16.67;;;;;4.24;100.00;98640.53;6314620;20;3561743;-58
2022/11/19 01:38:58;;;;;;;;;18.00;14.33;;;;;4.33;100.00;98643.59;6282129;20;2804541;-59
2022/11/19 01:41:31;;;;;;;;;21.67;17.67;;;;;4.07;100.00;98646.75;6317083;20;3562748;-59
2022/11/19 01:44:06;;;;;;;;;20.00;16.33;;;;;4.26;100.00;98647.50;6316090;20;3551695;-58
2022/11/19 01:46:37;;;;;;;;;21.50;17.50;;;;;4.28;100.00;98658.06;6315762;20;2825270;-59
2022/11/19 01:49:16;;;;;;;;;21.67;16.00;;;;;4.24;100.00;98644.09;6286432;20;3573264;-58
2022/11/19 01:52:00;;;;;;;;;20.00;19.00;;;;;4.34;100.00;98644.44;6286997;20;2709583;-58
2022/11/19 01:54:46;;;;;;;;;17.33;10.00;;;;;4.29;100.00;98633.19;6280135;20;3548175;-59
2022/11/19 01:57:17;;;;;;;;;24.00;19.33;;;;;4.22;100.00;98642.44;6312588;20;3564832;-59
2022/11/19 01:59:53;;;;;;;;;27.33;21.67;;;;;4.10;100.00;98650.09;6281999;20;3581533;-57
2022/11/19 02:02:24;;;;;;;;;28.00;22.00;;;;;4.16;100.00;98648.91;6280226;20;3581571;-59
2022/11/19 02:04:56;;;;;;;;;26.00;20.00;;;;;4.27;100.00;98643.06;6282900;20;2500345;-59
2022/11/19 02:07:28;;;;;;;;;24.00;21.00;;;;;4.13;100.00;98639.34;6280005;20;2500296;-58
2022/11/19 02:10:02;;;;;;;;;24.33;17.00;;;;;4.13;100.00;98649.06;6281164;20;3574209;-59
2022/11/19 02:13:29;;;;;;;;;21.50;21.50;;;;;4.04;100.00;98655.72;6281242;20;2500400;-59
2022/11/19 02:16:04;;;;;;;;;23.00;19.00;;;;;3.97;100.00;98667.59;6282714;20;2844126;-59
2022/11/19 02:18:46;;;;;;;;;28.00;25.50;;;;;3.81;100.00;98666.66;6282779;20;2849334;-59
2022/11/19 02:21:36;;;;;;;;;25.00;21.50;;;;;4.00;100.00;98685.19;6280090;20;2836741;-58
2022/11/19 02:24:21;;;;;;;;;26.33;20.67;;;;;3.86;100.00;98692.03;6282766;20;3571080;-58
2022/11/19 02:27:59;;;;;;;;;22.00;18.50;;;;;3.92;100.00;98688.22;6284267;20;2825300;-58
2022/11/19 02:30:45;;;;;;;;;18.33;15.00;;;;;3.90;100.00;98693.63;6284572;20;3552418;-58
2022/11/19 02:33:35;;;;;;;;;25.00;20.50;;;;;3.85;100.00;98705.41;6282757;20;2835706;-59
2022/11/19 02:36:21;;;;;;;;;26.00;19.50;;;;;4.15;100.00;98708.31;6281180;20;2837782;-58
2022/11/19 02:39:16;;;;;;;;;12.00;12.00;;;;;4.10;100.00;98711.19;6277624;20;2786869;-59
2022/11/19 02:42:08;;;;;;;;;25.00;18.33;;;;;4.01;100.00;98722.28;6285738;20;3571088;-58
2022/11/19 02:45:17;;;;;;;;;14.33;13.67;;;;;3.96;100.00;98721.66;6279752;20;2796066;-58
2022/11/19 02:47:50;;;;;;;;;17.00;17.00;;;;;3.68;100.00;98722.16;6311364;20;2823157;-59
2022/11/19 02:50:45;;;;;;;;;24.50;23.00;;;;;3.84;100.00;98711.63;6279564;20;2498209;-59
2022/11/19 02:53:14;;;;;;;;;22.67;22.67;;;;;3.70;100.00;98722.94;6280096;20;3575248;-59
2022/11/19 02:56:09;;;;;;;;;26.50;20.50;;;;;3.87;100.00;98735.38;6283371;20;2836800;-59
2022/11/19 03:07:14;;;;;;;;;27.00;26.00;;;;;3.80;100.00;98756.09;6278629;20;3591101;-59
2022/11/19 03:09:56;;;;;;;;;29.00;22.00;;;;;3.74;100.00;98759.91;6282970;20;2845094;-59
2022/11/19 03:12:54;;;;;;;;;31.00;27.00;;;;;3.64;100.00;98758.63;6280142;20;2848168;-59
2022/11/19 03:18:42;;;;;;;;;37.50;32.00;;;;;3.89;100.00;98784.81;6280309;20;2858594;-59
2022/11/19 03:21:30;;;;;;;;;40.50;36.00;;;;;3.95;100.00;98784.53;6282376;20;2864939;-59
2022/11/19 03:24:42;;;;;;;;;39.33;25.67;;;;;3.85;100.00;98772.66;6279141;20;3595114;-58
2022/11/19 03:27:41;;;;;;;;;47.67;36.33;;;;;3.86;100.00;98773.50;6281814;20;2871177;-59
2022/11/19 03:30:14;;;;;;;;;48.33;36.33;;;;;3.63;100.00;98774.59;6310192;20;3632585;-59
2022/11/19 03:33:01;;;;;;;;;38.00;35.00;;;;;3.33;100.00;98779.59;6276428;20;2856633;-58
2022/11/19 03:35:43;;;;;;;;;39.00;32.00;;;;;3.40;100.00;98784.53;6278157;20;2848169;-59
2022/11/19 03:38:25;;;;;;;;;38.67;30.33;;;;;3.52;100.00;98768.00;6282414;20;2867028;-59
2022/11/19 03:40:57;;;;;;;;;37.67;31.00;;;;;3.73;100.00;98773.22;6310911;20;2864843;-59
2022/11/19 03:43:30;;;;;;;;;31.00;27.50;;;;;3.72;100.00;98793.63;6311167;20;2839875;-59
2022/11/19 03:46:02;;;;;;;;;30.00;22.50;;;;;3.63;100.00;98804.66;6277758;20;2500288;-59
2022/11/19 03:48:30;;;;;;;;;29.50;25.00;;;;;3.51;100.00;98799.94;6276190;20;2500302;-59
2022/11/19 03:51:29;;;;;;;;;25.50;21.50;;;;;3.76;100.00;98814.69;6275482;20;2500277;-60
2022/11/19 03:53:56;;;;;;;;;27.50;22.00;;;;;3.72;100.00;98821.97;6280367;20;2835709;-59
2022/11/19 03:56:28;;;;;;;;;25.33;22.67;;;;;3.58;100.00;98805.81;6274041;20;3573598;-59
2022/11/19 03:58:59;;;;;;;;;24.00;20.00;;;;;3.66;100.00;98809.84;6277405;20;2500734;-59
2022/11/19 04:01:26;;;;;;;;;25.50;19.00;;;;;3.58;100.00;98824.41;6279147;20;2496190;-58
2022/11/19 04:06:41;;;;;;;;;30.00;24.00;;;;;3.55;100.00;98833.34;6278274;20;2496153;-58
2022/11/19 04:09:09;;;;;;;;;33.67;27.33;;;;;3.63;100.00;98847.13;6281362;20;3597153;-58
2022/11/19 04:11:37;;;;;;;;;23.50;23.00;;;;;3.50;100.00;98836.25;6278931;20;2500264;-59
2022/11/19 04:14:05;;;;;;;;;26.00;24.00;;;;;3.62;100.00;98856.03;6282351;20;2832561;-59
2022/11/19 04:16:32;;;;;;;;;31.50;26.50;;;;;3.73;100.00;98864.34;6276187;20;2500448;-59
2022/11/19 04:19:00;;;;;;;;;28.00;22.50;;;;;3.48;100.00;98859.34;6276645;20;2500347;-59
2022/11/19 04:21:30;;;;;;;;;35.33;27.00;;;;;3.53;100.00;98859.13;6280928;20;2859638;-58
2022/11/19 04:23:59;;;;;;;;;35.50;29.50;;;;;3.58;100.00;98865.09;6312110;20;2851749;-58
2022/11/19 04:26:28;;;;;;;;;33.00;30.00;;;;;3.71;100.00;98868.91;6277665;20;2852353;-58
2022/11/19 04:28:55;;;;;;;;;35.50;32.50;;;;;3.74;100.00;98876.72;6279462;20;2500409;-58
2022/11/19 04:31:25;;;;;;;;;41.67;37.00;;;;;3.64;100.00;98872.75;6277686;20;2878591;-58
2022/11/19 04:33:54;;;;;;;;;49.50;38.00;;;;;3.55;100.00;98878.47;6312929;20;2854441;-59
2022/11/19 04:36:23;;;;;;;;;49.50;38.00;;;;;3.55;100.00;98875.81;6278026;20;3615914;-58
2022/11/19 04:38:52;;;;;;;;;56.67;44.67;;;;;3.60;100.00;98895.06;6310095;20;2860806;-59
2022/11/19 04:41:22;;;;;;;;;49.00;39.00;;;;;3.44;100.00;98894.03;6311021;20;2851468;-58
2022/11/19 04:43:51;;;;;;;;;49.33;39.00;;;;;3.40;100.00;98898.63;6279190;20;2866986;-58
2022/11/19 04:46:20;;;;;;;;;50.00;40.50;;;;;3.46;100.00;98914.25;6307731;20;2841908;-59
2022/11/19 04:48:48;;;;;;;;;49.00;39.50;;;;;3.42;100.00;98922.44;6281298;20;2851799;-58
2022/11/19 04:51:17;;;;;;;;;58.00;43.50;;;;;3.34;100.00;98919.25;6278332;20;2871236;-58
2022/11/19 04:53:46;;;;;;;;;30.33;19.67;;;;;3.40;100.00;98913.69;6278282;20;3588889;-58
2022/11/19 04:56:15;;;;;;;;;59.50;45.00;;;;;3.21;100.00;98924.22;6279438;20;2851319;-58
2022/11/19 04:58:43;;;;;;;;;59.50;47.00;;;;;3.14;100.00;98926.31;6276720;20;2861787;-58
2022/11/19 05:01:12;;;;;;;;;59.00;47.00;;;;;3.19;100.00;98932.28;6278943;20;2845233;-59
2022/11/19 05:03:41;;;;;;;;;51.00;40.00;;;;;2.93;100.00;98933.41;6278543;20;2865951;-58
2022/11/19 05:06:10;;;;;;;;;56.00;44.00;;;;;3.02;100.00;98950.69;6278210;20;2866950;-59
2022/11/19 05:08:38;;;;;;;;;57.00;46.00;;;;;3.02;100.00;98956.84;6278027;20;2863811;-59
2022/11/19 05:11:07;;;;;;;;;56.00;44.50;;;;;3.02;100.00;98966.59;6278015;20;2867043;-58
2022/11/19 05:13:37;;;;;;;;;57.33;44.33;;;;;2.73;100.00;98973.13;6278947;20;2874340;-58
2022/11/19 05:16:06;;;;;;;;;57.50;42.50;;;;;2.97;100.00;98969.44;6309670;20;2872147;-58
2022/11/19 05:18:35;;;;;;;;;59.00;43.00;;;;;3.08;100.00;98987.56;6277117;20;2873305;-59
2022/11/19 05:21:04;;;;;;;;;58.00;47.00;;;;;2.96;100.00;98982.78;6309435;20;2871297;-59
2022/11/19 05:23:33;;;;;;;;;59.00;44.00;;;;;3.05;100.00;98993.00;6279512;20;2860741;-58
2022/11/19 05:26:01;;;;;;;;;58.00;44.00;;;;;2.90;100.00;98985.66;6280841;20;2863858;-58
2022/11/19 05:28:31;;;;;;;;;59.67;45.67;;;;;2.96;100.00;98977.47;6278593;20;3624194;-58
2022/11/19 05:31:07;;;;;;;;;61.00;47.50;;;;;2.86;100.00;98982.28;6310750;20;2881585;-59
2022/11/19 05:33:37;;;;;;;;;61.67;49.33;;;;;2.90;100.00;98988.31;6278251;20;2883818;-56
2022/11/19 05:36:06;;;;;;;;;59.00;47.50;;;;;2.88;100.00;98995.50;6305540;20;2854516;-59
2022/11/19 05:38:36;;;;;;;;;58.00;46.50;;;;;2.80;100.00;99004.63;6277201;20;2862755;-58
2022/11/19 05:41:05;;;;;;;;;61.50;47.00;;;;;2.68;100.00;98999.81;6279413;20;2861708;-58
2022/11/19 05:43:33;;;;;;;;;64.50;49.50;;;;;2.70;100.00;99005.91;6280896;20;2882712;-59
2022/11/19 05:46:03;;;;;;;;;66.33;48.00;;;;;2.74;100.00;99012.84;6277471;20;3645083;-58
2022/11/19 05:48:32;;;;;;;;;57.50;45.00;;;;;2.70;100.00;99024.47;6309355;20;2864926;-57
2022/11/19 05:51:01;;;;;;;;;62.33;47.67;;;;;2.74;100.00;99036.69;6278040;20;2871209;-58
2022/11/19 05:53:31;;;;;;;;;59.00;44.67;;;;;2.60;100.00;99044.31;6306886;20;2864897;-59
2022/11/19 05:55:59;;;;;;;;;58.00;47.00;;;;;2.75;100.00;99043.72;6309421;20;2864903;-58
2022/11/19 05:58:29;;;;;;;;;57.67;44.67;;;;;2.69;100.00;99049.25;6278417;20;2877812;-59
2022/11/19 06:00:59;;;;;;;;;63.00;48.00;;;;;2.56;100.00;99048.03;6303400;20;2492036;-58
2022/11/19 06:03:28;;;;;;;;;61.67;45.33;;;;;2.41;100.00;99045.03;6280541;20;2885716;-58
2022/11/19 06:05:58;;;;;;;;;65.00;45.67;;;;;2.38;100.00;99045.16;6308250;20;2886915;-58
2022/11/19 06:08:27;;;;;;;;;64.33;48.00;;;;;2.26;100.00;99045.63;6304863;20;2880562;-58
2022/11/19 06:10:57;;;;;;;;;69.33;54.00;;;;;2.32;100.00;99050.69;6306164;20;3627510;-59
2022/11/19 06:13:26;;;;;;;;;67.00;51.33;;;;;2.44;100.00;99059.09;6310111;20;2890910;-59
2022/11/19 06:15:56;;;;;;;;;63.33;50.33;;;;;2.25;100.00;99062.44;6308586;20;3622138;-58
2022/11/19 06:18:25;;;;;;;;;64.00;49.00;;;;;2.52;100.00;99057.00;6309327;20;2871201;-58
2022/11/19 06:20:54;;;;;;;;;61.00;46.50;;;;;2.31;100.00;99059.53;6310288;20;2867075;-59
2022/11/19 06:23:22;;;;;;;;;57.50;43.00;;;;;2.44;100.00;99054.66;6279547;20;2506705;-59
2022/11/19 06:25:54;;;;;;;;;63.00;48.00;;;;;2.58;100.00;99072.66;6283639;20;2881477;-58
2022/11/19 06:28:22;;;;;;;;;62.50;49.00;;;;;2.30;100.00;99073.72;6282001;20;2866498;-58
2022/11/19 06:30:52;;;;;;;;;69.67;49.67;;;;;2.52;100.00;99078.19;6283368;20;3644082;-59
2022/11/19 06:33:21;;;;;;;;;60.50;48.50;;;;;2.37;100.00;99069.94;6314898;20;2860746;-58
2022/11/19 06:35:49;;;;;;;;;57.50;43.50;;;;;2.57;100.00;99076.25;6282660;20;2861698;-59
2022/11/19 06:38:18;;;;;;;;;57.50;44.50;;;;;2.57;100.00;99077.09;6278825;20;2857701;-58
2022/11/19 06:40:46;;;;;;;;;58.50;44.50;;;;;2.56;100.00;99090.41;6277047;20;2487817;-59
2022/11/19 06:43:16;;;;;;;;;50.33;39.00;;;;;2.60;100.00;99092.88;6282378;20;2870284;-58
2022/11/19 06:45:45;;;;;;;;;78.33;58.33;;;;;2.75;100.00;99102.03;6311073;20;3653498;-59
2022/11/19 06:48:14;;;;;;;;;42.00;31.00;;;;;2.69;100.00;99102.28;6311605;20;2870050;-59
2022/11/19 06:50:45;;;;;;;;;51.50;43.00;;;;;2.80;100.00;99105.34;6281657;20;2868047;-58
2022/11/19 06:53:13;;;;;;;;;30.00;28.00;;;;;2.86;100.00;99096.28;6282284;20;2847204;-59
2022/11/19 06:55:41;;;;;;;;;31.00;21.50;;;;;2.92;100.00;99092.53;6282284;20;2500299;-58
2022/11/19 06:58:12;;;;;;;;;46.00;37.67;;;;;2.82;100.00;99098.22;6282090;20;2859825;-58
2022/11/19 07:00:40;;;;;;;;;27.50;20.00;;;;;2.97;100.00;99101.16;6313114;20;2840876;-58
2022/11/19 07:03:08;;;;;;;;;21.67;18.33;;;;;2.80;100.00;99115.97;6282574;20;3554455;-59
2022/11/19 07:05:39;;;;;;;;;183.75;148.75;;;;;3.03;100.00;99127.47;6311183;20;3720122;-58
2022/11/19 07:08:10;;;;;;;;;127.75;108.50;;;;;2.95;100.00;99142.78;6309246;20;4475271;-59
2022/11/19 07:10:38;;;;;;;;;57.00;42.50;;;;;2.85;100.00;99151.13;6279926;20;2855513;-58
2022/11/19 07:13:07;;;;;;;;;62.50;51.00;;;;;2.87;100.00;99137.81;6282587;20;2858629;-58
2022/11/19 07:15:35;;;;;;;;;160.50;137.50;;;;;2.93;100.00;99134.06;6274305;20;1958722;-59
2022/11/19 07:18:05;;;;;;;;;47.00;35.67;;;;;2.89;100.00;99145.69;6274745;20;3624313;-58
2022/11/19 07:20:34;;;;;;;;;40.00;33.50;;;;;2.96;100.00;99147.19;6310970;20;2861803;-59
2022/11/19 07:23:02;;;;;;;;;28.00;25.00;;;;;2.90;100.00;99152.69;6279608;20;2500400;-58
2022/11/19 07:25:29;;;;;;;;;31.50;26.00;;;;;2.89;100.00;99149.19;6285593;20;2849199;-58
2022/11/19 07:27:59;;;;;;;;;51.33;38.67;;;;;2.99;100.00;99149.72;6280556;20;2870060;-58
2022/11/19 07:30:29;;;;;;;;;55.50;43.00;;;;;3.09;100.00;99153.72;6310281;20;2838823;-58
2022/11/19 07:32:59;;;;;;;;;221.75;183.50;;;;;3.11;100.00;99161.59;6283163;20;3739933;-58
2022/11/19 07:35:29;;;;;;;;;63.33;43.67;;;;;3.24;100.00;99158.44;6274539;20;2869104;-58
2022/11/19 07:37:58;;;;;;;;;101.00;91.00;;;;;2.88;100.00;99165.19;6310229;20;3682519;-59
2022/11/19 07:40:27;;;;;;;;;65.00;51.00;;;;;2.78;100.00;99176.13;6281984;20;2864928;-59
2022/11/19 07:42:56;;;;;;;;;68.67;53.00;;;;;2.83;100.00;99176.81;6282514;20;2885672;-58
2022/11/19 07:45:26;;;;;;;;;56.00;42.67;;;;;3.08;100.00;99182.03;6312949;20;2874313;-58
2022/11/19 07:47:54;;;;;;;;;60.50;48.00;;;;;3.23;100.00;99183.19;6311282;20;2860738;-59
2022/11/19 07:50:24;;;;;;;;;58.33;43.00;;;;;3.28;100.00;99172.41;6280849;20;2887954;-58
2022/11/19 07:52:56;;;;;;;;;54.67;42.67;;;;;3.45;100.00;99169.06;6311570;20;2881683;-59
2022/11/19 07:55:26;;;;;;;;;98.67;87.67;;;;;3.39;100.00;99166.69;6310178;20;3672139;-59
2022/11/19 07:57:56;;;;;;;;;88.33;66.00;;;;;3.24;100.00;99174.34;6279095;20;3663843;-58
2022/11/19 08:00:26;;;;;;;;;62.33;47.00;;;;;3.21;100.00;99184.19;6310610;20;2863901;-59
2022/11/19 08:02:55;;;;;;;;;65.33;49.67;;;;;3.28;100.00;99191.00;6314355;20;2883702;-60
2022/11/19 08:05:25;;;;;;;;;44.00;37.67;;;;;3.28;100.00;99194.50;6312172;20;2860767;-60
2022/11/19 08:07:53;;;;;;;;;49.00;40.00;;;;;2.98;100.00;99185.13;6308282;20;2858638;-60
2022/11/19 08:10:24;;;;;;;;;46.67;39.00;;;;;3.09;100.00;99188.19;6278887;20;2857789;-60
2022/11/19 08:13:03;;;;;;;;;87.67;74.67;;;;;3.47;100.00;99175.19;6313146;20;3650275;-60
2022/11/19 08:15:33;;;;;;;;;66.33;51.00;;;;;3.57;100.00;99176.53;6307405;20;3638870;-60
2022/11/19 08:18:14;;;;;;;;;61.50;45.50;;;;;3.72;100.00;99181.22;6302402;20;2469037;-60
2022/11/19 08:20:47;;;;;;;;;49.50;40.50;;;;;3.61;100.00;99183.47;6276940;20;2857722;-60
2022/11/19 08:23:16;;;;;;;;;60.67;44.00;;;;;3.26;100.00;99188.38;6278871;20;2884760;-60
2022/11/19 08:25:46;;;;;;;;;74.33;56.00;;;;;3.19;100.00;99186.06;6313553;20;3641047;-59
2022/11/19 08:28:16;;;;;;;;;75.00;57.00;;;;;3.32;100.00;99186.41;6314230;20;2878525;-60
2022/11/19 08:30:46;;;;;;;;;66.67;47.00;;;;;3.67;100.00;99183.19;6312516;20;3628400;-60
2022/11/19 08:33:15;;;;;;;;;62.33;49.33;;;;;3.50;100.00;99172.41;6313010;20;2868190;-60
2022/11/19 08:35:45;;;;;;;;;79.33;62.33;;;;;3.33;100.00;99185.50;6314573;20;3623347;-60
2022/11/19 08:38:14;;;;;;;;;59.00;46.00;;;;;3.16;100.00;99176.44;6315987;20;2869076;-60
2022/11/19 08:40:49;;;;;;;;;59.00;47.50;;;;;3.40;100.00;99185.19;6313460;20;2871149;-59
2022/11/19 08:43:18;;;;;;;;;76.33;60.00;;;;;3.52;100.00;99186.47;6281473;20;2874721;-61
2022/11/19 08:45:53;;;;;;;;;88.00;71.00;;;;;3.56;100.00;99188.09;6313843;20;3657717;-61
2022/11/19 08:48:22;;;;;;;;;61.00;46.67;;;;;3.39;100.00;99204.69;6314193;20;2876432;-60
2022/11/19 08:50:51;;;;;;;;;55.50;44.50;;;;;3.07;100.00;99221.88;6314236;20;2854526;-61
2022/11/19 08:53:20;;;;;;;;;60.33;46.33;;;;;3.45;100.00;99235.41;6282610;20;2869306;-60
2022/11/19 08:55:52;;;;;;;;;55.00;38.00;;;;;3.01;100.00;99232.72;6313895;20;2867112;-61
2022/11/19 08:58:22;;;;;;;;;46.33;39.00;;;;;3.28;100.00;99244.91;6272551;20;2861850;-60
2022/11/19 09:00:50;;;;;;;;;41.67;28.33;;;;;3.80;100.00;99252.59;6314032;20;3573206;-59
2022/11/19 09:03:19;;;;;;;;;56.50;40.00;;;;;3.52;100.00;99251.03;6280852;20;2862836;-60
2022/11/19 09:05:49;;;;;;;;;57.33;45.33;;;;;3.70;100.00;99256.53;6277926;20;2861770;-61
2022/11/19 09:08:17;;;;;;;;;58.00;47.50;;;;;3.77;100.00;99262.47;6314902;20;2847163;-59
2022/11/19 09:10:45;;;;;;;;;54.50;40.50;;;;;3.92;100.00;99267.13;6279100;20;2495097;-60
2022/11/19 09:13:14;;;;;;;;;63.00;49.50;;;;;3.82;100.00;99266.69;6282437;20;2855012;-60
2022/11/19 09:15:46;;;;;;;;;76.33;60.00;;;;;3.70;100.00;99273.31;6281333;20;2870110;-60
2022/11/19 09:18:16;;;;;;;;;61.00;49.67;;;;;3.90;100.00;99274.31;6305753;20;2876499;-60
2022/11/19 09:20:45;;;;;;;;;43.00;35.50;;;;;3.73;100.00;99272.34;6307787;20;2864003;-60
2022/11/19 09:23:15;;;;;;;;;60.00;46.00;;;;;4.57;100.00;99287.41;6278176;20;2868081;-60
2022/11/19 09:25:44;;;;;;;;;53.50;40.00;;;;;4.53;100.00;99291.13;6310257;20;2871338;-60
2022/11/19 09:28:13;;;;;;;;;44.50;38.50;;;;;4.36;100.00;99267.06;6279650;20;2840949;-60
2022/11/19 09:30:41;;;;;;;;;55.00;39.50;;;;;3.98;100.00;99277.53;6279704;20;2873219;-60
2022/11/19 09:33:10;;;;;;;;;54.50;43.00;;;;;4.21;100.00;99265.06;6280939;20;2856689;-61
2022/11/19 09:35:39;;;;;;;;;58.33;45.33;;;;;4.15;100.00;99277.66;6281402;20;3614853;-61
2022/11/19 09:38:08;;;;;;;;;60.00;45.50;;;;;4.41;100.00;99283.69;6309158;20;2861741;-61
2022/11/19 09:40:37;;;;;;;;;56.00;43.50;;;;;4.28;100.00;99287.78;6282458;20;2857628;-61
2022/11/19 09:43:50;;;;;;;;;69.67;52.33;;;;;4.51;100.00;99293.00;6281239;20;2892096;-61
2022/11/19 09:46:28;;;;;;;;;50.00;43.00;;;;;4.15;100.00;99296.28;6308606;20;2852325;-61
2022/11/19 09:49:11;;;;;;;;;61.00;49.67;;;;;4.23;100.00;99300.41;6282405;20;3617975;-59
2022/11/19 09:51:52;;;;;;;;;67.00;51.00;;;;;3.80;100.00;99302.19;6307543;20;3628396;-60
2022/11/19 09:54:22;;;;;;;;;54.00;45.00;;;;;3.81;100.00;99285.31;6310140;20;2863613;-60
2022/11/19 09:56:55;;;;;;;;;59.00;47.50;;;;;4.28;100.00;99298.44;6282087;20;2859669;-60
2022/11/19 09:59:39;;;;;;;;;59.50;46.50;;;;;4.64;100.00;99296.00;6283329;20;2856659;-60
2022/11/19 10:02:22;;;;;;;;;66.00;53.33;;;;;5.05;100.00;99288.84;6279041;20;3624225;-58
2022/11/19 10:04:53;;;;;;;;;64.33;46.33;;;;;4.93;100.00;99293.84;6314797;20;3628444;-59
2022/11/19 10:08:22;;;;;;;;;53.67;41.67;;;;;4.61;100.00;99273.06;6312101;20;2869152;-58
2022/11/19 10:11:49;;;;;;;;;53.50;40.50;;;;;4.10;100.00;99277.00;6311386;20;2844019;-59
2022/11/19 10:15:08;;;;;;;;;50.00;39.00;;;;;4.37;100.00;99275.00;6284107;20;2493093;-60
2022/11/19 10:18:11;;;;;;;;;105.75;87.75;;;;;4.98;99.19;99273.22;6280842;20;4439836;-59
2022/11/19 10:21:01;;;;;;;;;42.67;31.33;;;;;4.70;99.17;99279.75;6310135;20;2866034;-58
2022/11/19 10:24:05;;;;;;;;;57.67;46.67;;;;;5.01;98.86;99275.72;6312958;20;2855476;-58
2022/11/19 10:26:40;;;;;;;;;57.00;43.00;;;;;5.00;98.93;99276.66;6313299;20;3617110;-58
2022/11/19 10:29:21;;;;;;;;;46.33;38.33;;;;;4.75;96.08;99296.38;6314419;20;3607675;-58
2022/11/19 10:31:51;;;;;;;;;50.50;41.00;;;;;4.93;95.95;99310.66;6279883;20;2854563;-58
2022/11/19 10:34:28;;;;;;;;;53.00;36.67;;;;;4.91;96.53;99309.84;6283762;20;2871095;-59
2022/11/19 10:37:08;;;;;;;;;54.50;44.00;;;;;4.59;96.07;99306.81;6312688;20;2856524;-59
2022/11/19 10:40:01;;;;;;;;;55.00;43.00;;;;;4.84;98.49;99297.75;6276612;20;2493058;-59
2022/11/19 10:42:40;;;;;;;;;57.00;41.00;;;;;4.69;96.59;99296.66;6278536;20;2874292;-59
2022/11/19 10:45:26;;;;;;;;;54.67;40.00;;;;;4.72;94.98;99306.28;6280327;20;3617950;-59
2022/11/19 10:48:11;;;;;;;;;40.00;33.50;;;;;4.77;96.02;99293.66;6309690;20;2848222;-59
2022/11/19 10:50:41;;;;;;;;;60.00;46.33;;;;;5.08;94.72;99301.09;6284693;20;2882659;-59
2022/11/19 10:53:22;;;;;;;;;47.67;35.00;;;;;4.81;95.43;99305.88;6312856;20;2858610;-59
2022/11/19 10:56:00;;;;;;;;;50.33;38.67;;;;;4.94;93.80;99308.84;6311144;20;3607610;-59
2022/11/19 10:58:51;;;;;;;;;56.00;42.00;;;;;4.87;95.85;99302.97;6311575;20;2866962;-59
2022/11/19 11:01:32;;;;;;;;;51.00;42.00;;;;;4.79;95.28;99303.31;6279593;20;2850386;-58
2022/11/19 11:04:26;;;;;;;;;89.00;67.33;;;;;4.98;95.96;99303.34;6282931;20;3681490;-58
2022/11/19 11:07:03;;;;;;;;;55.33;39.67;;;;;5.18;94.62;99314.88;6278865;20;2871366;-58
2022/11/19 11:09:42;;;;;;;;;46.00;39.00;;;;;4.84;96.05;99325.25;6317300;20;3574215;-59
2022/11/19 11:15:20;;;;;;;;;47.00;37.33;;;;;5.16;97.89;99325.59;6283107;20;3601281;-59
2022/11/19 11:18:10;;;;;;;;;56.50;44.50;;;;;5.33;97.97;99335.47;6312176;20;2854407;-59
2022/11/19 11:20:48;;;;;;;;;49.67;39.00;;;;;4.98;97.60;99339.72;6279835;20;2861793;-59
2022/11/19 11:23:29;;;;;;;;;45.50;37.00;;;;;5.03;96.75;99332.41;6307894;20;2875301;-59
2022/11/19 11:26:23;;;;;;;;;31.50;29.00;;;;;4.98;97.54;99324.63;6280855;20;2855578;-58
2022/11/19 11:29:14;;;;;;;;;52.00;41.67;;;;;4.94;98.07;99325.69;6277479;20;2848220;-58
2022/11/19 11:31:46;;;;;;;;;65.67;46.33;;;;;4.71;97.24;99321.34;6313665;20;3632537;-59
2022/11/19 11:34:38;;;;;;;;;56.00;43.00;;;;;4.78;98.09;99340.59;6311484;20;2877395;-58
2022/11/19 11:37:11;;;;;;;;;68.33;49.00;;;;;4.94;98.15;99333.66;6278519;20;3642971;-58
2022/11/19 11:39:43;;;;;;;;;56.33;44.00;;;;;4.95;98.55;99346.03;6313424;20;2885745;-59
2022/11/19 11:42:18;;;;;;;;;73.67;53.00;;;;;5.07;97.67;99344.63;6312660;20;3629473;-60
2022/11/19 11:44:58;;;;;;;;;52.00;41.33;;;;;4.67;99.59;99346.38;6315462;20;3593015;-59
2022/11/19 11:47:37;;;;;;;;;50.33;36.33;;;;;4.70;99.52;99343.56;6277738;20;2864982;-60
2022/11/19 11:50:18;;;;;;;;;52.00;41.67;;;;;4.71;100.00;99347.09;6310387;20;2854483;-59
2022/11/19 11:52:53;;;;;;;;;58.67;44.67;;;;;4.42;100.00;99346.53;6310846;20;3631528;-59
2022/11/19 11:55:25;;;;;;;;;56.00;42.00;;;;;4.64;100.00;99345.66;6310699;20;2875355;-59